createdAt,value
2023-05-15T00:00:44.196Z,73.21
2023-05-15T00:03:12.634Z,73.26
2023-05-15T00:05:41.735Z,73.11
2023-05-15T00:08:09.417Z,72.93
2023-05-15T00:10:38.296Z,73.60
2023-05-15T00:13:07.472Z,73.86
2023-05-15T00:15:35.176Z,74.01
2023-05-15T00:18:03.315Z,73.46
2023-05-15T00:20:31.237Z,73.70
2023-05-15T00:23:00.543Z,73.81
2023-05-15T00:25:28.245Z,73.96
2023-05-15T00:27:56.234Z,73.11
2023-05-15T00:30:24.044Z,73.39
2023-05-15T00:32:52.118Z,73.89
2023-05-15T00:35:19.765Z,74.07
2023-05-15T00:37:47.778Z,73.88
2023-05-15T00:40:22.153Z,74.00
2023-05-15T00:42:51.501Z,73.93
2023-05-15T00:45:20.536Z,74.01
2023-05-15T00:47:50.029Z,74.24
2023-05-15T00:50:18.229Z,74.21
2023-05-15T00:52:46.704Z,74.18
2023-05-15T00:55:16.135Z,74.33
2023-05-15T00:57:45.199Z,74.48
2023-05-15T01:00:17.265Z,75.03
2023-05-15T01:02:45.499Z,75.48
2023-05-15T01:05:13.184Z,75.62
2023-05-15T01:07:50.379Z,75.22
2023-05-15T01:10:22.593Z,74.94
2023-05-15T01:12:52.061Z,75.06
2023-05-15T01:15:20.157Z,75.44
2023-05-15T01:17:47.902Z,75.71
2023-05-15T01:20:20.069Z,76.45
2023-05-15T01:23:00.822Z,77.36
2023-05-15T01:25:58.859Z,77.13
2023-05-15T01:28:33.121Z,77.41
2023-05-15T01:31:10.672Z,76.81
2023-05-15T01:33:43.819Z,76.63
2023-05-15T01:36:15.619Z,76.45
2023-05-15T01:38:48.638Z,75.32
2023-05-15T01:41:21.044Z,75.76
2023-05-15T01:43:57.146Z,75.89
2023-05-15T01:46:30.940Z,75.86
2023-05-15T01:49:02.642Z,76.27
2023-05-15T01:51:32.324Z,75.94
2023-05-15T01:54:01.191Z,76.64
2023-05-15T01:56:30.631Z,77.15
2023-05-15T01:59:01.625Z,77.29
2023-05-15T02:01:31.278Z,77.55
2023-05-15T02:03:59.272Z,77.90
2023-05-15T02:06:27.609Z,77.34
2023-05-15T02:08:58.173Z,76.82
2023-05-15T02:11:26.191Z,77.53
2023-05-15T02:13:55.914Z,80.17
2023-05-15T02:16:25.763Z,80.19
2023-05-15T02:18:53.630Z,79.87
2023-05-15T02:21:21.694Z,79.42
2023-05-15T02:23:49.303Z,80.18
2023-05-15T02:26:31.635Z,81.53
2023-05-15T02:29:11.256Z,80.28
2023-05-15T02:31:49.022Z,79.65
2023-05-15T02:34:25.153Z,79.75
2023-05-15T02:36:54.564Z,81.00
2023-05-15T02:39:24.964Z,80.94
2023-05-15T02:41:54.352Z,80.38
2023-05-15T02:44:23.746Z,80.80
2023-05-15T02:46:56.055Z,80.73
2023-05-15T02:49:24.161Z,80.60
2023-05-15T02:51:52.062Z,80.53
2023-05-15T02:54:20.361Z,80.39
2023-05-15T02:56:48.088Z,80.64
2023-05-15T02:59:20.213Z,80.94
2023-05-15T03:01:48.351Z,81.73
2023-05-15T03:04:18.554Z,81.61
2023-05-15T03:06:46.248Z,81.75
2023-05-15T03:09:14.235Z,81.68
2023-05-15T03:11:41.858Z,81.82
2023-05-15T03:14:09.518Z,81.66
2023-05-15T03:16:38.761Z,82.34
2023-05-15T03:19:06.995Z,82.38
2023-05-15T03:21:36.116Z,82.54
2023-05-15T03:24:05.017Z,82.80
2023-05-15T03:26:33.134Z,82.67
2023-05-15T03:29:02.702Z,83.51
2023-05-15T03:31:30.407Z,84.13
2023-05-15T03:33:58.099Z,83.80
2023-05-15T03:36:26.180Z,83.78
2023-05-15T03:38:55.220Z,85.09
2023-05-15T03:41:23.441Z,86.12
2023-05-15T03:43:51.122Z,85.77
2023-05-15T03:46:20.222Z,86.02
2023-05-15T03:48:47.957Z,85.46
2023-05-15T03:51:16.110Z,84.78
2023-05-15T03:53:43.728Z,84.45
2023-05-15T03:56:13.396Z,84.42
2023-05-15T03:58:41.818Z,84.52
2023-05-15T04:01:10.061Z,84.70
2023-05-15T04:03:37.746Z,84.38
2023-05-15T04:06:06.213Z,85.61
2023-05-15T04:08:34.244Z,86.41
2023-05-15T04:11:02.220Z,86.39
2023-05-15T04:13:31.285Z,86.02
2023-05-15T04:16:00.248Z,86.47
2023-05-15T04:18:28.020Z,86.52
2023-05-15T04:20:56.387Z,86.31
2023-05-15T04:23:24.030Z,86.44
2023-05-15T04:25:54.092Z,85.75
2023-05-15T04:28:22.039Z,85.73
2023-05-15T04:30:51.511Z,86.23
2023-05-15T04:33:19.167Z,86.71
2023-05-15T04:35:48.049Z,86.18
2023-05-15T04:38:16.392Z,85.54
2023-05-15T04:40:44.176Z,85.14
2023-05-15T04:43:12.408Z,85.50
2023-05-15T04:45:40.097Z,85.21
2023-05-15T04:48:09.235Z,85.11
2023-05-15T04:50:37.595Z,85.08
2023-05-15T04:53:05.421Z,85.08
2023-05-15T04:55:33.796Z,84.76
2023-05-15T04:58:01.558Z,84.31
2023-05-15T05:00:29.546Z,83.88
2023-05-15T05:02:57.597Z,83.36
2023-05-15T05:05:26.981Z,83.04
2023-05-15T05:07:54.795Z,82.65
2023-05-15T05:10:23.499Z,82.76
2023-05-15T05:12:51.180Z,82.95
2023-05-15T05:15:19.535Z,83.21
2023-05-15T05:17:47.266Z,82.89
2023-05-15T05:20:15.418Z,82.32
2023-05-15T05:22:46.031Z,81.51
2023-05-15T05:25:13.704Z,80.74
2023-05-15T05:27:41.343Z,80.34
2023-05-15T05:30:10.618Z,81.17
2023-05-15T05:32:38.360Z,82.68
2023-05-15T05:35:07.192Z,83.22
2023-05-15T05:37:35.084Z,83.96
2023-05-15T05:40:09.041Z,84.37
2023-05-15T05:42:36.769Z,85.77
2023-05-15T05:45:04.625Z,86.27
2023-05-15T05:47:33.312Z,85.98
2023-05-15T05:50:01.082Z,88.88
2023-05-15T05:52:29.325Z,90.52
2023-05-15T05:54:57.384Z,90.71
2023-05-15T05:57:26.570Z,90.02
2023-05-15T05:59:54.295Z,89.55
2023-05-15T06:02:22.513Z,88.54
2023-05-15T06:04:51.044Z,88.54
2023-05-15T06:07:18.681Z,88.62
2023-05-15T06:09:49.668Z,89.12
2023-05-15T06:12:17.341Z,88.63
2023-05-15T06:14:46.381Z,87.85
2023-05-15T06:17:14.557Z,88.49
2023-05-15T06:19:42.266Z,87.67
2023-05-15T06:22:09.949Z,86.04
2023-05-15T06:24:38.202Z,84.78
2023-05-15T06:27:06.252Z,83.37
2023-05-15T06:29:33.921Z,82.86
2023-05-15T06:32:04.223Z,81.86
2023-05-15T06:34:31.896Z,81.68
2023-05-15T06:36:59.568Z,82.01
2023-05-15T06:39:27.581Z,81.88
2023-05-15T06:41:59.088Z,82.01
2023-05-15T06:44:27.367Z,81.88
2023-05-15T06:46:55.370Z,79.70
2023-05-15T06:49:25.549Z,77.61
2023-05-15T06:51:55.233Z,76.76
2023-05-15T06:54:22.916Z,76.01
2023-05-15T06:56:51.142Z,75.43
2023-05-15T06:59:18.814Z,75.43
2023-05-15T07:01:46.481Z,74.32
2023-05-15T07:04:14.741Z,74.40
2023-05-15T07:06:44.326Z,74.75
2023-05-15T07:09:12.054Z,74.46
2023-05-15T07:11:40.461Z,73.63
2023-05-15T07:14:08.460Z,73.28
2023-05-15T07:16:36.165Z,73.56
2023-05-15T07:19:04.274Z,72.77
2023-05-15T07:21:32.365Z,70.75
2023-05-15T07:24:01.636Z,69.22
2023-05-15T07:26:36.365Z,70.02
2023-05-15T07:29:09.870Z,71.33
2023-05-15T07:31:40.243Z,71.95
2023-05-15T07:34:07.941Z,72.84
2023-05-15T07:36:35.993Z,72.54
2023-05-15T07:39:05.252Z,72.76
2023-05-15T07:41:34.181Z,70.02
2023-05-15T07:44:01.802Z,68.44
2023-05-15T07:46:29.503Z,67.24
2023-05-15T07:48:58.063Z,66.71
2023-05-15T07:51:25.806Z,66.07
2023-05-15T07:53:53.412Z,66.32
2023-05-15T07:56:23.083Z,65.37
2023-05-15T07:58:50.787Z,65.94
2023-05-15T08:01:18.438Z,66.56
2023-05-15T08:03:46.680Z,66.35
2023-05-15T08:06:14.348Z,66.35
2023-05-15T08:08:42.903Z,66.54
2023-05-15T08:11:10.517Z,67.22
2023-05-15T08:13:39.544Z,68.98
2023-05-15T08:16:07.972Z,69.72
2023-05-15T08:18:35.760Z,69.88
2023-05-15T08:21:04.760Z,71.43
2023-05-15T08:23:32.898Z,71.31
2023-05-15T08:26:00.550Z,71.93
2023-05-15T08:28:28.275Z,73.35
2023-05-15T08:30:58.656Z,74.16
2023-05-15T08:33:26.317Z,74.61
2023-05-15T08:35:53.982Z,73.31
2023-05-15T08:38:23.110Z,71.21
2023-05-15T08:40:53.823Z,69.60
2023-05-15T08:43:24.081Z,68.61
2023-05-15T08:45:53.592Z,68.19
2023-05-15T08:48:26.933Z,67.12
2023-05-15T08:50:57.686Z,66.94
2023-05-15T08:53:26.231Z,66.26
2023-05-15T08:55:54.482Z,64.86
2023-05-15T08:58:25.941Z,64.11
2023-05-15T09:00:53.683Z,64.58
2023-05-15T09:03:23.961Z,64.46
2023-05-15T09:05:53.125Z,64.94
2023-05-15T09:08:24.182Z,65.49
2023-05-15T09:10:55.053Z,65.98
2023-05-15T09:13:22.798Z,66.22
2023-05-15T09:15:51.003Z,66.68
2023-05-15T09:18:19.317Z,66.62
2023-05-15T09:20:48.369Z,67.73
2023-05-15T09:23:27.410Z,69.76
2023-05-15T09:25:56.854Z,70.80
2023-05-15T09:28:30.559Z,73.25
2023-05-15T09:31:00.426Z,74.21
2023-05-15T09:33:35.242Z,75.75
2023-05-15T09:36:05.771Z,76.97
2023-05-15T09:38:33.808Z,78.19
2023-05-15T09:41:05.998Z,79.47
2023-05-15T09:43:35.858Z,79.97
2023-05-15T09:46:03.811Z,80.31
2023-05-15T09:48:33.267Z,80.42
2023-05-15T09:51:02.189Z,80.55
2023-05-15T09:53:31.754Z,79.74
2023-05-15T09:55:59.998Z,79.20
2023-05-15T09:58:27.680Z,78.77
2023-05-15T10:00:55.651Z,78.08
2023-05-15T10:03:24.469Z,77.17
2023-05-15T10:06:01.619Z,75.97
2023-05-15T10:08:30.259Z,75.82
2023-05-15T10:11:01.597Z,75.57
2023-05-15T10:13:33.068Z,75.26
2023-05-15T10:16:03.553Z,75.61
2023-05-15T10:18:31.504Z,75.20
2023-05-15T10:21:04.626Z,74.92
2023-05-15T10:23:34.153Z,74.03
2023-05-15T10:26:07.026Z,72.06
2023-05-15T10:28:36.226Z,69.46
2023-05-15T10:31:05.593Z,69.41
2023-05-15T10:33:34.158Z,68.39
2023-05-15T10:36:03.306Z,68.59
2023-05-15T10:38:31.899Z,69.07
2023-05-15T10:41:15.760Z,68.66
2023-05-15T10:43:47.272Z,68.49
2023-05-15T10:46:16.284Z,68.42
2023-05-15T10:48:44.463Z,68.88
2023-05-15T10:51:18.201Z,69.90
2023-05-15T10:53:46.627Z,70.24
2023-05-15T10:56:16.506Z,69.28
2023-05-15T10:58:50.298Z,70.05
2023-05-15T11:01:28.675Z,70.82
2023-05-15T11:04:10.627Z,70.21
2023-05-15T11:06:38.998Z,70.08
2023-05-15T11:09:36.145Z,69.99
2023-05-15T11:12:05.313Z,71.59
2023-05-15T11:14:37.251Z,70.91
2023-05-15T11:17:07.194Z,69.88
2023-05-15T11:19:38.279Z,69.20
2023-05-15T11:22:21.976Z,69.36
2023-05-15T11:24:54.912Z,69.02
2023-05-15T11:27:24.501Z,69.28
2023-05-15T11:30:11.728Z,69.42
2023-05-15T11:32:49.133Z,67.42
2023-05-15T11:35:21.944Z,67.13
2023-05-15T11:37:51.157Z,63.95
2023-05-15T11:40:24.801Z,62.13
2023-05-15T11:43:06.477Z,62.68
2023-05-15T11:45:37.177Z,63.33
2023-05-15T11:48:08.626Z,62.46
2023-05-15T11:50:36.673Z,62.64
2023-05-15T11:53:06.659Z,61.33
2023-05-15T11:55:35.779Z,59.34
2023-05-15T11:58:04.334Z,56.32
2023-05-15T12:00:32.612Z,56.86
2023-05-15T12:03:03.748Z,56.16
2023-05-15T12:05:31.942Z,51.20
2023-05-15T12:08:00.120Z,50.10
2023-05-15T12:10:28.024Z,50.61
2023-05-15T12:12:56.130Z,52.48
2023-05-15T12:15:24.242Z,52.10
2023-05-15T12:17:52.059Z,51.42
2023-05-15T12:20:21.394Z,52.07
2023-05-15T12:22:49.454Z,51.38
2023-05-15T12:25:17.650Z,49.82
2023-05-15T12:27:45.801Z,50.18
2023-05-15T12:30:16.733Z,49.50
2023-05-15T12:32:44.987Z,50.49
2023-05-15T12:35:13.212Z,50.61
2023-05-15T12:37:42.708Z,51.48
2023-05-15T12:40:12.273Z,47.56
2023-05-15T12:42:41.380Z,46.10
2023-05-15T12:45:20.012Z,45.74
2023-05-15T12:47:49.665Z,46.12
2023-05-15T12:50:19.845Z,48.44
2023-05-15T12:52:52.955Z,47.23
2023-05-15T12:55:26.216Z,48.19
2023-05-15T12:57:54.437Z,46.60
2023-05-15T13:00:22.824Z,48.69
2023-05-15T13:02:52.448Z,50.66
2023-05-15T13:05:20.670Z,51.37
2023-05-15T13:07:49.819Z,49.81
2023-05-15T13:10:18.611Z,53.51
2023-05-15T13:12:47.706Z,55.17
2023-05-15T13:15:35.676Z,55.10
2023-05-15T13:18:05.031Z,52.59
2023-05-15T13:20:36.531Z,51.97
2023-05-15T13:23:06.005Z,52.98
2023-05-15T13:25:33.966Z,52.50
2023-05-15T13:28:03.867Z,52.38
2023-05-15T13:30:33.054Z,51.49
2023-05-15T13:33:01.452Z,52.84
2023-05-15T13:35:29.605Z,52.98
2023-05-15T13:37:57.757Z,53.95
2023-05-15T13:40:27.290Z,54.76
2023-05-15T13:42:55.431Z,55.49
2023-05-15T13:45:23.066Z,56.04
2023-05-15T13:47:52.119Z,57.51
2023-05-15T13:50:19.803Z,59.56
2023-05-15T13:52:48.473Z,60.19
2023-05-15T13:55:16.217Z,61.28
2023-05-15T13:57:45.416Z,63.21
2023-05-15T14:00:14.295Z,64.45
2023-05-15T14:02:42.987Z,65.10
2023-05-15T14:05:14.479Z,66.29
2023-05-15T14:07:42.840Z,67.41
2023-05-15T14:10:11.621Z,67.60
2023-05-15T14:12:40.196Z,67.82
2023-05-15T14:15:11.887Z,70.00
2023-05-15T14:17:39.621Z,71.68
2023-05-15T14:20:09.348Z,74.63
2023-05-15T14:22:37.111Z,77.71
2023-05-15T14:25:05.383Z,80.76
2023-05-15T14:27:33.412Z,82.98
2023-05-15T14:30:01.551Z,86.10
2023-05-15T14:32:30.903Z,87.85
2023-05-15T14:35:00.016Z,87.67
2023-05-15T14:37:28.632Z,88.64
2023-05-15T14:39:56.312Z,90.08
2023-05-15T14:42:24.368Z,92.09
2023-05-15T14:44:51.985Z,94.44
2023-05-15T14:47:20.071Z,94.29
2023-05-15T14:49:49.104Z,93.94
2023-05-15T14:52:17.890Z,94.10
2023-05-15T14:54:51.199Z,95.93
2023-05-15T14:57:25.272Z,95.70
2023-05-15T14:59:52.970Z,96.40
2023-05-15T15:02:20.641Z,97.04
2023-05-15T15:04:50.119Z,97.26
2023-05-15T15:07:17.714Z,96.75
2023-05-15T15:09:45.771Z,96.29
2023-05-15T15:12:13.423Z,96.55
2023-05-15T15:14:41.094Z,96.70
2023-05-15T15:17:09.094Z,96.39
2023-05-15T15:19:36.780Z,94.16
2023-05-15T15:22:06.720Z,94.23
2023-05-15T15:24:34.345Z,94.10
2023-05-15T15:27:01.926Z,93.95
2023-05-15T15:29:29.999Z,93.89
2023-05-15T15:31:57.739Z,94.08
2023-05-15T15:34:26.094Z,94.74
2023-05-15T15:36:53.723Z,95.56
2023-05-15T15:39:22.764Z,95.46
2023-05-15T15:41:50.916Z,96.47
2023-05-15T15:44:18.569Z,97.18
2023-05-15T15:46:46.575Z,97.33
2023-05-15T15:49:14.235Z,97.60
2023-05-15T15:51:43.026Z,98.63
2023-05-15T15:54:10.719Z,99.01
2023-05-15T15:56:40.240Z,98.43
2023-05-15T15:59:08.283Z,97.62
2023-05-15T16:01:35.999Z,98.04
2023-05-15T16:04:03.720Z,99.55
2023-05-15T16:06:32.353Z,98.52
2023-05-15T16:09:00.205Z,98.93
2023-05-15T16:11:29.796Z,99.36
2023-05-15T16:13:59.327Z,99.45
2023-05-15T16:16:27.471Z,99.93
2023-05-15T16:18:55.199Z,100.00
2023-05-15T16:21:23.122Z,100.00
2023-05-15T16:23:51.194Z,100.00
2023-05-15T16:26:19.376Z,99.63
2023-05-15T16:28:47.050Z,99.46
2023-05-15T16:31:17.943Z,99.55
2023-05-15T16:33:45.895Z,99.30
2023-05-15T16:36:14.040Z,98.26
2023-05-15T16:38:42.143Z,95.42
2023-05-15T16:41:09.808Z,93.57
2023-05-15T16:43:38.662Z,93.43
2023-05-15T16:46:07.112Z,93.18
2023-05-15T16:48:36.128Z,86.76
2023-05-15T16:51:03.759Z,87.41
2023-05-15T16:53:31.838Z,84.91
2023-05-15T16:56:00.073Z,84.09
2023-05-15T16:58:27.733Z,86.35
2023-05-15T17:00:55.768Z,87.63
2023-05-15T17:03:23.583Z,88.52
2023-05-15T17:05:52.958Z,89.27
2023-05-15T17:08:20.612Z,88.29
2023-05-15T17:10:49.419Z,88.69
2023-05-15T17:13:17.071Z,89.03
2023-05-15T17:15:47.495Z,89.19
2023-05-15T17:18:15.550Z,90.99
2023-05-15T17:20:43.264Z,93.71
2023-05-15T17:23:12.805Z,95.19
2023-05-15T17:25:40.429Z,96.11
2023-05-15T17:28:08.035Z,96.39
2023-05-15T17:30:36.121Z,96.79
2023-05-15T17:33:03.960Z,97.60
2023-05-15T17:35:33.228Z,98.11
2023-05-15T17:38:01.625Z,98.15
2023-05-15T17:40:30.700Z,98.53
2023-05-15T17:42:58.297Z,98.61
2023-05-15T17:45:27.259Z,97.59
2023-05-15T17:48:02.047Z,96.25
2023-05-15T17:50:30.095Z,94.88
2023-05-15T17:52:57.765Z,94.18
2023-05-15T17:55:26.529Z,93.25
2023-05-15T17:57:55.607Z,91.38
2023-05-15T18:00:24.250Z,89.22
2023-05-15T18:02:52.030Z,87.62
2023-05-15T18:05:19.793Z,91.95
2023-05-15T18:07:48.466Z,95.22
2023-05-15T18:10:16.060Z,95.70
2023-05-15T18:12:44.694Z,95.76
2023-05-15T18:15:13.791Z,94.02
2023-05-15T18:17:41.470Z,89.50
2023-05-15T18:20:10.622Z,88.83
2023-05-15T18:22:38.264Z,91.15
2023-05-15T18:25:06.736Z,92.74
2023-05-15T18:27:35.059Z,92.91
2023-05-15T18:30:02.983Z,91.70
2023-05-15T18:32:32.022Z,89.83
2023-05-15T18:35:01.009Z,84.14
2023-05-15T18:37:28.638Z,82.64
2023-05-15T18:39:57.404Z,80.90
2023-05-15T18:42:26.007Z,78.20
2023-05-15T18:44:53.654Z,76.34
2023-05-15T18:47:22.205Z,77.02
2023-05-15T18:49:51.234Z,76.63
2023-05-15T18:52:19.941Z,77.24
2023-05-15T18:54:48.590Z,77.44
2023-05-15T18:57:16.566Z,78.15
2023-05-15T18:59:44.441Z,81.84
2023-05-15T19:02:12.569Z,82.66
2023-05-15T19:04:40.309Z,82.90
2023-05-15T19:07:09.384Z,83.43
2023-05-15T19:09:37.357Z,82.93
2023-05-15T19:12:05.379Z,81.53
2023-05-15T19:14:33.911Z,81.32
2023-05-15T19:17:02.014Z,80.15
2023-05-15T19:19:30.305Z,79.52
2023-05-15T19:21:58.276Z,76.84
2023-05-15T19:24:27.312Z,75.94
2023-05-15T19:26:55.581Z,75.19
2023-05-15T19:29:23.246Z,74.31
2023-05-15T19:31:51.080Z,74.01
2023-05-15T19:34:19.619Z,73.81
2023-05-15T19:36:50.594Z,74.00
2023-05-15T19:39:18.503Z,73.09
2023-05-15T19:41:48.138Z,73.69
2023-05-15T19:44:16.164Z,73.00
2023-05-15T19:46:45.532Z,73.40
2023-05-15T19:49:14.081Z,74.10
2023-05-15T19:51:42.079Z,74.58
2023-05-15T19:54:12.108Z,75.20
2023-05-15T19:56:39.810Z,75.23
2023-05-15T19:59:08.903Z,75.54
2023-05-15T20:01:36.973Z,75.20
2023-05-15T20:04:04.790Z,75.61
2023-05-15T20:06:33.490Z,76.02
2023-05-15T20:09:01.111Z,75.71
2023-05-15T20:11:28.807Z,76.37
2023-05-15T20:13:56.837Z,77.19
2023-05-15T20:16:25.882Z,77.60
2023-05-15T20:18:55.023Z,77.87
2023-05-15T20:21:23.100Z,77.58
2023-05-15T20:23:51.096Z,78.31
2023-05-15T20:26:19.911Z,78.00
2023-05-15T20:28:47.924Z,78.84
2023-05-15T20:31:16.230Z,78.86
2023-05-15T20:33:45.768Z,79.24
2023-05-15T20:36:13.885Z,79.07
2023-05-15T20:38:41.564Z,79.44
2023-05-15T20:41:09.673Z,79.33
2023-05-15T20:43:38.411Z,79.55
2023-05-15T20:46:09.115Z,79.24
2023-05-15T20:48:37.285Z,79.45
2023-05-15T20:51:06.362Z,79.26
2023-05-15T20:53:34.460Z,78.90
2023-05-15T20:56:03.180Z,78.50
2023-05-15T20:58:31.123Z,77.92
2023-05-15T21:01:01.367Z,78.28
2023-05-15T21:03:30.199Z,78.05
2023-05-15T21:05:58.082Z,77.91
2023-05-15T21:08:28.439Z,78.39
2023-05-15T21:10:56.261Z,78.00
2023-05-15T21:13:23.956Z,77.83
2023-05-15T21:15:51.917Z,78.06
2023-05-15T21:18:19.754Z,78.16
2023-05-15T21:20:47.778Z,78.15
2023-05-15T21:23:16.321Z,78.70
2023-05-15T21:25:45.432Z,78.80
2023-05-15T21:28:13.632Z,78.57
2023-05-15T21:30:41.330Z,78.95
2023-05-15T21:33:09.149Z,78.67
2023-05-15T21:35:38.037Z,79.28
2023-05-15T21:38:05.821Z,79.67
2023-05-15T21:40:33.446Z,79.46
2023-05-15T21:43:02.542Z,79.85
2023-05-15T21:45:30.764Z,79.27
2023-05-15T21:47:58.589Z,79.06
2023-05-15T21:50:27.845Z,79.44
2023-05-15T21:52:55.911Z,79.31
2023-05-15T21:55:23.620Z,78.74
2023-05-15T21:57:51.731Z,79.18
2023-05-15T22:00:21.257Z,79.37
2023-05-15T22:02:49.064Z,78.89
2023-05-15T22:05:18.895Z,78.98
2023-05-15T22:07:46.543Z,79.00
2023-05-15T22:10:16.418Z,79.13
2023-05-15T22:12:44.683Z,79.23
2023-05-15T22:15:14.384Z,79.55
2023-05-15T22:17:43.581Z,79.55
2023-05-15T22:20:13.507Z,79.26
2023-05-15T22:22:43.088Z,79.37
2023-05-15T22:25:11.101Z,79.54
2023-05-15T22:27:39.226Z,80.01
2023-05-15T22:30:08.627Z,80.63
2023-05-15T22:32:36.588Z,81.08
2023-05-15T22:35:06.390Z,81.32
2023-05-15T22:37:34.349Z,80.89
2023-05-15T22:40:02.313Z,80.48
2023-05-15T22:42:30.323Z,80.84
2023-05-15T22:44:58.268Z,81.40
2023-05-15T22:47:28.558Z,81.58
2023-05-15T22:49:56.540Z,81.77
2023-05-15T22:52:26.270Z,81.99
2023-05-15T22:54:53.888Z,82.02
2023-05-15T22:57:21.814Z,81.82
2023-05-15T22:59:49.498Z,81.76
2023-05-15T23:02:17.542Z,81.91
2023-05-15T23:04:45.270Z,81.34
2023-05-15T23:07:13.123Z,81.17
2023-05-15T23:09:42.489Z,80.98
2023-05-15T23:12:10.345Z,81.09
2023-05-15T23:14:38.396Z,80.53
2023-05-15T23:17:06.245Z,80.52
2023-05-15T23:19:34.191Z,80.47
2023-05-15T23:22:02.124Z,80.56
2023-05-15T23:24:30.142Z,80.96
2023-05-15T23:26:59.143Z,81.41
2023-05-15T23:29:27.441Z,81.34
2023-05-15T23:31:56.957Z,80.50
2023-05-15T23:34:25.765Z,80.26
2023-05-15T23:36:53.751Z,80.33
2023-05-15T23:39:21.473Z,80.13
2023-05-15T23:41:49.575Z,80.09
2023-05-15T23:44:18.799Z,80.09
2023-05-15T23:46:46.550Z,80.07
2023-05-15T23:49:14.685Z,80.28
2023-05-15T23:51:43.580Z,80.41
2023-05-15T23:54:11.554Z,80.26
2023-05-15T23:56:39.468Z,80.30
2023-05-15T23:59:07.508Z,80.33
